createdAt,value
2016-10-07T00:00:02.548Z,99.99
2016-10-07T00:01:02.983Z,99.99
2016-10-07T00:02:02.561Z,99.99
2016-10-07T00:03:02.559Z,99.99
2016-10-07T00:04:02.488Z,99.99
2016-10-07T00:05:02.559Z,99.99
2016-10-07T00:06:02.573Z,99.99
2016-10-07T00:07:02.568Z,99.99
2016-10-07T00:08:02.562Z,99.99
2016-10-07T00:09:02.499Z,99.99
2016-10-07T00:10:02.490Z,99.99
2016-10-07T00:11:02.572Z,99.99
2016-10-07T00:12:02.546Z,99.99
2016-10-07T00:13:02.552Z,99.99
2016-10-07T00:14:02.512Z,99.99
2016-10-07T00:15:02.583Z,99.99
2016-10-07T00:16:02.597Z,99.99
2016-10-07T00:17:02.718Z,99.99
2016-10-07T00:18:02.559Z,99.99
2016-10-07T00:19:02.566Z,99.99
2016-10-07T00:20:02.562Z,99.99
2016-10-07T00:21:02.604Z,99.99
2016-10-07T00:22:02.573Z,99.99
2016-10-07T00:23:02.604Z,99.99
2016-10-07T00:24:02.611Z,99.99
2016-10-07T00:25:02.539Z,99.99
2016-10-07T00:26:02.619Z,99.99
2016-10-07T00:27:02.542Z,99.99
2016-10-07T00:28:02.624Z,99.99
2016-10-07T00:29:02.582Z,99.99
2016-10-07T00:30:02.586Z,99.99
2016-10-07T00:31:02.593Z,99.99
2016-10-07T00:32:02.557Z,99.99
2016-10-07T00:33:02.765Z,99.99
2016-10-07T00:34:02.568Z,99.99
2016-10-07T00:35:02.639Z,99.99
2016-10-07T00:36:02.641Z,99.99
2016-10-07T00:37:02.646Z,99.99
2016-10-07T00:38:02.578Z,99.99
2016-10-07T00:39:02.652Z,99.99
2016-10-07T00:40:02.659Z,99.99
2016-10-07T00:41:02.615Z,99.99
2016-10-07T00:42:02.678Z,99.99
2016-10-07T00:43:02.617Z,99.99
2016-10-07T00:44:02.589Z,99.99
2016-10-07T00:45:02.618Z,99.99
2016-10-07T00:46:02.669Z,99.99
2016-10-07T00:47:02.605Z,99.99
2016-10-07T00:48:02.681Z,99.99
2016-10-07T00:49:02.737Z,99.99
2016-10-07T00:50:02.678Z,99.99
2016-10-07T00:51:02.645Z,99.99
2016-10-07T00:52:02.662Z,99.99
2016-10-07T00:53:02.659Z,99.99
2016-10-07T00:54:02.622Z,99.99
2016-10-07T00:55:02.630Z,99.99
2016-10-07T00:56:02.630Z,99.99
2016-10-07T00:57:02.672Z,99.99
2016-10-07T00:58:02.633Z,99.99
2016-10-07T00:59:02.712Z,99.99
2016-10-07T01:00:02.641Z,99.99
2016-10-07T01:01:02.682Z,99.99
2016-10-07T01:02:02.671Z,99.99
2016-10-07T01:03:02.725Z,99.99
2016-10-07T01:04:02.722Z,99.99
2016-10-07T01:05:02.862Z,99.99
2016-10-07T01:06:02.652Z,99.99
2016-10-07T01:07:02.741Z,99.99
2016-10-07T01:08:02.731Z,99.99
2016-10-07T01:09:02.745Z,99.99
2016-10-07T01:10:02.746Z,99.99
2016-10-07T01:11:02.742Z,99.99
2016-10-07T01:12:02.738Z,99.99
2016-10-07T01:13:02.743Z,99.99
2016-10-07T01:14:02.706Z,99.99
2016-10-07T01:15:02.706Z,99.99
2016-10-07T01:16:02.754Z,99.99
2016-10-07T01:17:02.762Z,99.99
2016-10-07T01:18:02.759Z,99.99
2016-10-07T01:19:02.688Z,99.99
2016-10-07T01:20:02.687Z,99.99
2016-10-07T01:21:03.019Z,99.99
2016-10-07T01:22:02.727Z,99.99
2016-10-07T01:23:02.730Z,99.99
2016-10-07T01:24:02.778Z,99.99
2016-10-07T01:25:02.779Z,99.99
2016-10-07T01:26:02.783Z,99.99
2016-10-07T01:27:02.817Z,99.99
2016-10-07T01:28:02.722Z,99.99
2016-10-07T01:29:02.794Z,99.99
2016-10-07T01:30:02.752Z,99.99
2016-10-07T01:31:02.797Z,99.99
2016-10-07T01:32:02.736Z,99.99
2016-10-07T01:33:02.763Z,99.99
2016-10-07T01:34:02.732Z,99.99
2016-10-07T01:35:02.813Z,99.99
2016-10-07T01:36:02.777Z,99.99
2016-10-07T01:37:03.189Z,99.99
2016-10-07T01:38:02.787Z,99.99
2016-10-07T01:39:02.775Z,99.99
2016-10-07T01:40:02.750Z,99.99
2016-10-07T01:41:02.825Z,99.99
2016-10-07T01:42:02.833Z,99.99
2016-10-07T01:43:02.835Z,99.99
2016-10-07T01:44:02.797Z,99.99
2016-10-07T01:45:02.806Z,99.99
2016-10-07T01:46:02.766Z,99.99
2016-10-07T01:47:02.771Z,99.99
2016-10-07T01:48:02.848Z,99.99
2016-10-07T01:49:02.777Z,99.99
2016-10-07T01:50:02.870Z,99.99
2016-10-07T01:51:02.854Z,99.99
2016-10-07T01:52:02.847Z,99.99
2016-10-07T01:53:02.985Z,99.99
2016-10-07T01:54:02.800Z,99.99
2016-10-07T01:55:02.860Z,99.99
2016-10-07T01:56:02.868Z,99.99
2016-10-07T01:57:02.795Z,99.99
2016-10-07T01:58:02.869Z,99.99
2016-10-07T01:59:02.872Z,99.99
2016-10-07T02:00:02.809Z,99.99
2016-10-07T02:01:02.854Z,99.99
2016-10-07T02:02:03.116Z,99.99
2016-10-07T02:03:03.055Z,99.99
2016-10-07T02:04:02.884Z,99.99
2016-10-07T02:05:02.889Z,99.99
2016-10-07T02:06:02.897Z,99.99
2016-10-07T02:07:02.906Z,99.99
2016-10-07T02:08:02.864Z,99.99
2016-10-07T02:09:03.077Z,99.99
2016-10-07T02:10:02.908Z,99.99
2016-10-07T02:11:02.907Z,99.99
2016-10-07T02:12:02.874Z,99.99
2016-10-07T02:13:02.875Z,99.99
2016-10-07T02:14:02.881Z,99.99
2016-10-07T02:15:02.927Z,99.99
2016-10-07T02:16:02.880Z,99.99
2016-10-07T02:17:02.853Z,99.99
2016-10-07T02:18:02.900Z,99.99
2016-10-07T02:19:02.936Z,99.99
2016-10-07T02:20:02.907Z,99.99
2016-10-07T02:21:02.940Z,99.99
2016-10-07T02:22:02.920Z,99.99
2016-10-07T02:23:02.945Z,99.99
2016-10-07T02:24:02.884Z,99.99
2016-10-07T02:25:02.996Z,99.99
2016-10-07T02:26:02.931Z,99.99
2016-10-07T02:27:02.980Z,99.99
2016-10-07T02:28:02.957Z,99.99
2016-10-07T02:29:02.967Z,99.99
2016-10-07T02:30:02.889Z,99.99
2016-10-07T02:31:02.940Z,99.99
2016-10-07T02:32:02.987Z,99.99
2016-10-07T02:33:02.935Z,99.99
2016-10-07T02:34:02.968Z,99.99
2016-10-07T02:35:02.977Z,99.99
2016-10-07T02:36:03.038Z,99.99
2016-10-07T02:37:02.905Z,99.99
2016-10-07T02:38:02.918Z,99.99
2016-10-07T02:39:02.997Z,99.99
2016-10-07T02:40:02.964Z,99.99
2016-10-07T02:41:03.420Z,99.99
2016-10-07T02:42:03.003Z,99.99
2016-10-07T02:43:02.999Z,99.99
2016-10-07T02:44:02.928Z,99.99
2016-10-07T02:45:02.974Z,99.99
2016-10-07T02:46:03.010Z,99.99
2016-10-07T02:47:03.019Z,99.99
2016-10-07T02:48:03.016Z,99.99
2016-10-07T02:49:02.983Z,99.99
2016-10-07T02:50:02.946Z,99.99
2016-10-07T02:51:02.988Z,99.99
2016-10-07T02:52:02.954Z,99.99
2016-10-07T02:53:02.957Z,99.99
2016-10-07T02:54:02.962Z,99.99
2016-10-07T02:55:02.987Z,99.99
2016-10-07T02:56:03.034Z,99.99
2016-10-07T02:57:03.320Z,99.99
2016-10-07T02:58:02.977Z,99.99
2016-10-07T02:59:02.978Z,99.99
2016-10-07T03:00:03.053Z,99.99
2016-10-07T03:01:03.055Z,99.99
2016-10-07T03:02:03.060Z,99.99
2016-10-07T03:03:02.981Z,99.99
2016-10-07T03:04:03.061Z,99.99
2016-10-07T03:05:02.997Z,99.99
2016-10-07T03:06:03.061Z,99.99
2016-10-07T03:07:03.036Z,99.99
2016-10-07T03:08:03.078Z,99.99
2016-10-07T03:09:03.009Z,99.99
2016-10-07T03:10:03.003Z,99.99
2016-10-07T03:11:03.085Z,99.99
2016-10-07T03:12:03.083Z,99.99
2016-10-07T03:13:03.229Z,99.99
2016-10-07T03:14:03.092Z,99.99
2016-10-07T03:15:03.092Z,99.99
2016-10-07T03:16:03.026Z,99.99
2016-10-07T03:17:03.229Z,99.99
2016-10-07T03:18:03.099Z,99.99
2016-10-07T03:19:03.099Z,99.99
2016-10-07T03:20:03.062Z,99.99
2016-10-07T03:21:03.113Z,99.99
2016-10-07T03:22:03.111Z,99.99
2016-10-07T03:23:03.107Z,99.99
2016-10-07T03:24:03.121Z,99.99
2016-10-07T03:25:03.119Z,99.99
2016-10-07T03:26:03.058Z,99.99
2016-10-07T03:27:03.133Z,99.99
2016-10-07T03:28:03.138Z,99.99
2016-10-07T03:29:03.215Z,99.99
2016-10-07T03:30:03.065Z,99.99
2016-10-07T03:31:03.077Z,99.99
2016-10-07T03:32:03.095Z,99.99
2016-10-07T03:33:03.152Z,99.99
2016-10-07T03:34:03.120Z,99.99
2016-10-07T03:35:03.107Z,99.99
2016-10-07T03:36:03.112Z,99.99
2016-10-07T03:37:03.086Z,99.99
2016-10-07T03:38:03.093Z,99.99
2016-10-07T03:39:03.120Z,99.99
2016-10-07T03:40:03.166Z,99.99
2016-10-07T03:41:03.144Z,99.99
2016-10-07T03:42:03.172Z,99.99
2016-10-07T03:43:03.139Z,99.99
2016-10-07T03:44:03.179Z,99.99
2016-10-07T03:45:03.311Z,99.99
2016-10-07T03:46:03.173Z,99.99
2016-10-07T03:47:03.157Z,99.99
2016-10-07T03:48:03.151Z,99.99
2016-10-07T03:49:03.197Z,99.99
2016-10-07T03:50:03.129Z,99.99
2016-10-07T03:51:03.202Z,99.99
2016-10-07T03:52:03.176Z,99.99
2016-10-07T03:53:03.209Z,99.99
2016-10-07T03:54:03.177Z,99.99
2016-10-07T03:55:03.212Z,99.99
2016-10-07T03:56:03.205Z,99.99
2016-10-07T03:57:03.143Z,99.99
2016-10-07T03:58:03.144Z,99.99
2016-10-07T03:59:03.173Z,99.99
2016-10-07T04:00:03.180Z,99.99
2016-10-07T04:01:03.348Z,99.99
2016-10-07T04:02:03.236Z,99.99
2016-10-07T04:03:03.227Z,99.99
2016-10-07T04:04:03.208Z,99.99
2016-10-07T04:05:03.247Z,99.99
2016-10-07T04:06:03.237Z,99.99
2016-10-07T04:07:03.249Z,99.99
2016-10-07T04:08:03.253Z,99.99
2016-10-07T04:09:03.251Z,99.99
2016-10-07T04:10:03.178Z,99.99
2016-10-07T04:11:03.254Z,99.99
2016-10-07T04:12:03.257Z,99.99
2016-10-07T04:13:03.232Z,99.99
2016-10-07T04:14:03.233Z,99.99
2016-10-07T04:15:03.188Z,99.99
2016-10-07T04:16:03.224Z,99.99
2016-10-07T04:17:03.374Z,99.99
2016-10-07T04:18:03.280Z,99.99
2016-10-07T04:19:03.275Z,99.99
2016-10-07T04:20:03.283Z,99.99
2016-10-07T04:21:03.292Z,99.99
2016-10-07T04:22:03.208Z,99.99
2016-10-07T04:23:03.219Z,99.99
2016-10-07T04:24:03.293Z,99.99
2016-10-07T04:25:03.215Z,99.99
2016-10-07T04:26:03.300Z,99.99
2016-10-07T04:27:03.259Z,99.99
2016-10-07T04:28:03.244Z,99.99
2016-10-07T04:29:03.238Z,99.99
2016-10-07T04:30:03.241Z,99.99
2016-10-07T04:31:03.321Z,99.99
2016-10-07T04:32:03.244Z,99.99
2016-10-07T04:33:03.629Z,99.99
2016-10-07T04:34:03.296Z,99.99
2016-10-07T04:35:03.248Z,99.99
2016-10-07T04:36:03.330Z,99.99
2016-10-07T04:37:03.287Z,99.99
2016-10-07T04:38:03.341Z,99.99
2016-10-07T04:39:03.305Z,99.99
2016-10-07T04:40:03.339Z,99.99
2016-10-07T04:41:03.342Z,99.99
2016-10-07T04:42:03.342Z,99.99
2016-10-07T04:43:03.338Z,99.99
2016-10-07T04:44:03.274Z,99.99
2016-10-07T04:45:03.345Z,99.99
2016-10-07T04:46:03.349Z,99.99
2016-10-07T04:47:03.365Z,99.99
2016-10-07T04:48:03.295Z,99.99
2016-10-07T04:49:03.418Z,99.99
2016-10-07T04:50:03.370Z,99.99
2016-10-07T04:51:03.362Z,99.99
2016-10-07T04:52:03.304Z,99.99
2016-10-07T04:53:03.389Z,99.99
2016-10-07T04:54:03.373Z,99.99
2016-10-07T04:55:03.383Z,99.99
2016-10-07T04:56:03.390Z,99.99
2016-10-07T04:57:03.391Z,99.99
2016-10-07T04:58:03.398Z,99.99
2016-10-07T04:59:03.391Z,99.99
2016-10-07T05:00:03.374Z,99.99
2016-10-07T05:01:03.326Z,99.99
2016-10-07T05:02:03.326Z,99.99
2016-10-07T05:03:03.390Z,99.99
2016-10-07T05:04:03.377Z,99.99
2016-10-07T05:05:03.547Z,99.99
2016-10-07T05:06:03.360Z,99.99
2016-10-07T05:07:03.344Z,99.99
2016-10-07T05:08:03.383Z,99.99
2016-10-07T05:09:03.423Z,99.99
2016-10-07T05:10:03.396Z,99.99
2016-10-07T05:11:03.394Z,99.99
2016-10-07T05:12:03.394Z,99.99
2016-10-07T05:13:03.354Z,99.99
2016-10-07T05:14:03.382Z,99.99
2016-10-07T05:15:03.437Z,99.99
2016-10-07T05:16:03.436Z,99.99
2016-10-07T05:17:03.442Z,99.99
2016-10-07T05:18:03.450Z,99.99
2016-10-07T05:19:03.374Z,99.99
2016-10-07T05:20:03.455Z,99.99
2016-10-07T05:21:03.661Z,99.99
2016-10-07T05:22:03.385Z,99.99
2016-10-07T05:23:03.388Z,99.99
2016-10-07T05:24:03.456Z,99.99
2016-10-07T05:25:03.480Z,99.99
2016-10-07T05:26:03.470Z,99.99
2016-10-07T05:27:03.398Z,99.99
2016-10-07T05:28:03.401Z,99.99
2016-10-07T05:29:03.497Z,99.99
2016-10-07T05:30:03.477Z,99.99
2016-10-07T05:31:03.485Z,99.99
2016-10-07T05:32:03.503Z,99.99
2016-10-07T05:33:03.408Z,99.99
2016-10-07T05:34:03.423Z,99.99
2016-10-07T05:35:03.492Z,99.99
2016-10-07T05:36:03.488Z,99.99
2016-10-07T05:37:03.544Z,99.99
2016-10-07T05:38:03.506Z,99.99
2016-10-07T05:39:03.429Z,99.99
2016-10-07T05:40:03.522Z,99.99
2016-10-07T05:41:03.435Z,99.99
2016-10-07T05:42:03.471Z,99.99
2016-10-07T05:43:03.522Z,99.99
2016-10-07T05:44:03.531Z,99.99
2016-10-07T05:45:03.530Z,99.99
2016-10-07T05:46:03.534Z,99.99
2016-10-07T05:47:03.460Z,99.99
2016-10-07T05:48:03.458Z,99.99
2016-10-07T05:49:03.528Z,99.99
2016-10-07T05:50:03.536Z,99.99
2016-10-07T05:51:03.541Z,99.99
2016-10-07T05:52:03.546Z,99.99
2016-10-07T05:53:03.889Z,99.99
2016-10-07T05:54:03.465Z,99.99
2016-10-07T05:55:03.562Z,99.99
2016-10-07T05:56:03.561Z,99.99
2016-10-07T05:57:03.554Z,99.99
2016-10-07T05:58:03.558Z,99.99
2016-10-07T05:59:03.578Z,99.99
2016-10-07T06:00:03.566Z,99.99
2016-10-07T06:01:03.527Z,99.99
2016-10-07T06:02:03.573Z,99.99
2016-10-07T06:03:03.587Z,99.99
2016-10-07T06:04:03.540Z,99.99
2016-10-07T06:05:03.536Z,99.99
2016-10-07T06:06:03.543Z,99.99
2016-10-07T06:07:03.586Z,99.99
2016-10-07T06:08:03.564Z,99.99
2016-10-07T06:09:03.923Z,99.99
2016-10-07T06:10:03.590Z,99.99
2016-10-07T06:11:03.581Z,99.99
2016-10-07T06:12:03.549Z,99.99
2016-10-07T06:13:03.571Z,99.99
2016-10-07T06:14:03.603Z,99.99
2016-10-07T06:15:03.612Z,99.99
2016-10-07T06:16:03.575Z,99.99
2016-10-07T06:17:03.570Z,99.99
2016-10-07T06:18:03.612Z,99.99
2016-10-07T06:19:03.581Z,99.99
2016-10-07T06:20:03.616Z,99.99
2016-10-07T06:21:03.582Z,99.99
2016-10-07T06:22:03.542Z,99.99
2016-10-07T06:23:03.579Z,99.99
2016-10-07T06:24:03.624Z,99.99
2016-10-07T06:25:03.760Z,99.99
2016-10-07T06:26:03.637Z,99.99
2016-10-07T06:27:03.573Z,99.99
2016-10-07T06:28:03.594Z,99.99
2016-10-07T06:29:03.644Z,99.99
2016-10-07T06:30:03.606Z,99.99
2016-10-07T06:31:03.646Z,99.99
2016-10-07T06:32:03.644Z,99.99
2016-10-07T06:33:03.654Z,99.99
2016-10-07T06:34:03.653Z,99.99
2016-10-07T06:35:03.642Z,99.99
2016-10-07T06:36:03.665Z,99.99
2016-10-07T06:37:03.587Z,99.99
2016-10-07T06:38:03.689Z,99.99
2016-10-07T06:39:03.644Z,99.99
2016-10-07T06:40:03.646Z,99.99
2016-10-07T06:41:03.798Z,99.99
2016-10-07T06:42:03.682Z,99.99
2016-10-07T06:43:03.687Z,99.99
2016-10-07T06:44:03.675Z,99.99
2016-10-07T06:45:03.689Z,99.99
2016-10-07T06:46:03.615Z,99.99
2016-10-07T06:47:03.652Z,99.99
2016-10-07T06:48:03.692Z,99.99
2016-10-07T06:49:03.698Z,99.99
2016-10-07T06:50:03.663Z,99.99
2016-10-07T06:51:03.630Z,99.99
2016-10-07T06:52:03.713Z,99.99
2016-10-07T06:53:03.706Z,99.99
2016-10-07T06:54:03.709Z,99.99
2016-10-07T06:55:03.730Z,99.99
2016-10-07T06:56:03.647Z,99.99
2016-10-07T06:57:03.784Z,99.99
2016-10-07T06:58:03.709Z,99.99
2016-10-07T06:59:03.728Z,99.99
2016-10-07T07:00:03.725Z,99.99
2016-10-07T07:01:03.745Z,99.99
2016-10-07T07:02:03.695Z,99.99
2016-10-07T07:03:03.665Z,99.99
2016-10-07T07:04:03.742Z,99.99
2016-10-07T07:05:03.749Z,99.99
2016-10-07T07:06:03.677Z,99.99
2016-10-07T07:07:03.742Z,99.99
2016-10-07T07:08:03.746Z,99.99
2016-10-07T07:09:03.762Z,99.99
2016-10-07T07:10:03.759Z,99.99
2016-10-07T07:11:03.717Z,99.99
2016-10-07T07:12:03.752Z,99.99
2016-10-07T07:13:03.880Z,99.99
2016-10-07T07:14:03.765Z,99.99
2016-10-07T07:15:03.709Z,99.99
2016-10-07T07:16:03.707Z,99.99
2016-10-07T07:17:03.731Z,99.99
2016-10-07T07:18:03.717Z,99.99
2016-10-07T07:19:03.710Z,99.99
2016-10-07T07:20:03.787Z,99.99
2016-10-07T07:21:03.741Z,99.99
2016-10-07T07:22:03.751Z,99.99
2016-10-07T07:23:03.725Z,99.99
2016-10-07T07:24:03.830Z,99.99
2016-10-07T07:25:03.827Z,99.99
2016-10-07T07:26:03.881Z,99.99
2016-10-07T07:27:03.802Z,99.99
2016-10-07T07:28:03.811Z,99.99
2016-10-07T07:29:03.915Z,99.99
2016-10-07T07:30:03.814Z,99.99
2016-10-07T07:31:03.821Z,99.99
2016-10-07T07:32:03.816Z,99.99
2016-10-07T07:33:03.810Z,99.99
2016-10-07T07:34:03.747Z,99.99
2016-10-07T07:35:03.827Z,99.99
2016-10-07T07:36:03.993Z,99.99
2016-10-07T07:37:03.805Z,99.99
2016-10-07T07:38:06.368Z,99.99
2016-10-07T07:39:03.835Z,99.99
2016-10-07T07:40:03.838Z,99.99
2016-10-07T07:41:04.250Z,99.99
2016-10-07T07:42:03.818Z,99.99
2016-10-07T07:43:03.872Z,99.99
2016-10-07T07:44:03.875Z,99.99
2016-10-07T07:45:04.363Z,99.99
2016-10-07T07:46:03.863Z,99.99
2016-10-07T07:47:03.824Z,99.99
2016-10-07T07:48:03.813Z,99.99
2016-10-07T07:49:03.837Z,99.99
2016-10-07T07:50:03.890Z,99.99
2016-10-07T07:51:03.877Z,99.99
2016-10-07T07:52:03.882Z,99.99
2016-10-07T07:53:03.829Z,99.99
2016-10-07T07:54:03.861Z,99.99
2016-10-07T07:55:03.808Z,99.99
2016-10-07T07:56:03.924Z,99.99
2016-10-07T07:57:03.853Z,99.99
2016-10-07T07:58:03.935Z,99.99
2016-10-07T07:59:03.964Z,99.99
2016-10-07T08:00:03.837Z,99.99
2016-10-07T08:01:04.254Z,99.99
2016-10-07T08:02:03.912Z,99.99
2016-10-07T08:03:03.916Z,99.99
2016-10-07T08:04:03.908Z,99.99
2016-10-07T08:05:03.913Z,99.99
2016-10-07T08:06:03.923Z,99.99
2016-10-07T08:07:03.901Z,99.99
2016-10-07T08:08:03.945Z,99.99
2016-10-07T08:09:03.932Z,99.99
2016-10-07T08:10:03.926Z,99.99
2016-10-07T08:11:03.950Z,99.99
2016-10-07T08:12:03.932Z,99.99
2016-10-07T08:13:03.875Z,99.99
2016-10-07T08:14:03.899Z,99.99
2016-10-07T08:15:03.910Z,99.99
2016-10-07T08:16:03.984Z,99.99
2016-10-07T08:17:04.124Z,99.99
2016-10-07T08:18:03.965Z,99.99
2016-10-07T08:19:03.960Z,99.99
2016-10-07T08:20:03.971Z,99.99
2016-10-07T08:21:03.951Z,99.99
2016-10-07T08:22:03.971Z,99.99
2016-10-07T08:23:03.887Z,99.99
2016-10-07T08:24:03.970Z,99.99
2016-10-07T08:25:03.909Z,99.99
2016-10-07T08:26:03.963Z,99.99
2016-10-07T08:27:03.966Z,99.99
2016-10-07T08:28:03.976Z,99.99
2016-10-07T08:29:03.952Z,99.99
2016-10-07T08:30:03.939Z,99.99
2016-10-07T08:31:03.968Z,99.99
2016-10-07T08:32:03.928Z,99.99
2016-10-07T08:33:04.210Z,99.99
2016-10-07T08:34:03.963Z,99.99
2016-10-07T08:35:04.011Z,99.99
2016-10-07T08:36:03.993Z,99.99
2016-10-07T08:37:03.945Z,99.99
2016-10-07T08:38:03.965Z,99.99
2016-10-07T08:39:03.998Z,99.99
2016-10-07T08:40:03.960Z,99.99
2016-10-07T08:41:04.013Z,99.99
2016-10-07T08:42:04.010Z,99.99
2016-10-07T08:43:04.023Z,99.99
2016-10-07T08:44:03.953Z,99.99
2016-10-07T08:45:04.020Z,99.99
2016-10-07T08:46:04.022Z,99.99
2016-10-07T08:47:03.954Z,99.99
2016-10-07T08:48:04.038Z,99.99
2016-10-07T08:49:04.544Z,99.99
2016-10-07T08:50:04.048Z,99.99
2016-10-07T08:51:03.967Z,99.99
2016-10-07T08:52:04.015Z,99.99
2016-10-07T08:53:04.064Z,99.99
2016-10-07T08:54:04.045Z,99.99
2016-10-07T08:55:04.052Z,99.99
2016-10-07T08:56:04.046Z,99.99
2016-10-07T08:57:04.057Z,99.99
2016-10-07T08:58:04.034Z,99.99
2016-10-07T08:59:04.122Z,99.99
2016-10-07T09:00:04.013Z,99.99
2016-10-07T09:01:04.062Z,99.99
2016-10-07T09:02:04.031Z,99.99
2016-10-07T09:03:04.030Z,99.99
2016-10-07T09:04:04.082Z,99.99
2016-10-07T09:05:04.208Z,99.99
2016-10-07T09:06:04.082Z,99.99
2016-10-07T09:07:04.032Z,99.99
2016-10-07T09:08:04.044Z,99.99
2016-10-07T09:09:04.085Z,99.99
2016-10-07T09:10:04.070Z,99.99
2016-10-07T09:11:13.421Z,99.99
2016-10-07T09:12:04.108Z,99.99
2016-10-07T09:13:04.102Z,99.99
2016-10-07T09:14:04.112Z,99.99
2016-10-07T09:15:04.038Z,99.99
2016-10-07T09:16:04.046Z,99.99
2016-10-07T09:17:04.122Z,99.99
2016-10-07T09:18:04.086Z,99.99
2016-10-07T09:19:04.079Z,99.99
2016-10-07T09:20:04.133Z,99.99
2016-10-07T09:21:04.262Z,99.99
2016-10-07T09:22:04.131Z,99.99
2016-10-07T09:23:04.144Z,99.99
2016-10-07T09:24:04.056Z,99.99
2016-10-07T09:25:04.200Z,99.99
2016-10-07T09:26:04.279Z,99.99
2016-10-07T09:27:04.181Z,99.99
2016-10-07T09:28:04.147Z,99.99
2016-10-07T09:29:04.179Z,99.99
2016-10-07T09:30:04.141Z,99.99
2016-10-07T09:31:04.202Z,99.99
2016-10-07T09:32:04.154Z,99.99
2016-10-07T09:33:04.182Z,99.99
2016-10-07T09:34:04.086Z,99.99
2016-10-07T09:35:04.159Z,99.99
2016-10-07T09:36:04.192Z,99.99
2016-10-07T09:37:04.398Z,99.99
2016-10-07T09:38:04.139Z,99.99
2016-10-07T09:39:04.218Z,99.99
2016-10-07T09:40:04.175Z,99.99
2016-10-07T09:41:04.184Z,99.99
2016-10-07T09:42:04.219Z,99.99
2016-10-07T09:43:04.187Z,99.99
2016-10-07T09:44:04.155Z,99.99
2016-10-07T09:45:04.205Z,99.99
2016-10-07T09:46:04.201Z,99.99
2016-10-07T09:47:04.142Z,99.99
2016-10-07T09:48:04.114Z,99.99
2016-10-07T09:49:04.168Z,99.99
2016-10-07T09:50:04.243Z,99.99
2016-10-07T09:51:04.207Z,99.99
2016-10-07T09:52:04.214Z,99.99
2016-10-07T09:53:04.560Z,99.99
2016-10-07T09:54:04.137Z,99.99
2016-10-07T09:55:04.210Z,99.99
2016-10-07T09:56:04.148Z,99.99
2016-10-07T09:57:04.171Z,99.99
2016-10-07T09:58:04.257Z,99.99
2016-10-07T09:59:04.230Z,99.99
2016-10-07T10:00:04.239Z,99.99
2016-10-07T10:01:04.160Z,99.99
2016-10-07T10:02:04.236Z,99.99
2016-10-07T10:03:04.161Z,99.99
2016-10-07T10:04:04.235Z,99.99
2016-10-07T10:05:04.352Z,99.99
2016-10-07T10:06:04.243Z,99.99
2016-10-07T10:07:04.259Z,99.99
2016-10-07T10:08:04.279Z,99.99
2016-10-07T10:09:04.405Z,99.99
2016-10-07T10:10:04.223Z,99.99
2016-10-07T10:11:04.248Z,99.99
2016-10-07T10:12:04.273Z,99.99
2016-10-07T10:13:04.195Z,99.99
2016-10-07T10:14:04.254Z,99.99
2016-10-07T10:15:04.214Z,99.99
2016-10-07T10:16:04.313Z,99.99
2016-10-07T10:17:04.217Z,99.99
2016-10-07T10:18:04.283Z,99.99
2016-10-07T10:19:04.245Z,99.99
2016-10-07T10:20:04.271Z,99.99
2016-10-07T10:21:04.284Z,99.99
2016-10-07T10:22:04.301Z,99.99
2016-10-07T10:23:04.298Z,99.99
2016-10-07T10:24:04.254Z,99.99
2016-10-07T10:25:04.421Z,99.99
2016-10-07T10:26:04.304Z,99.99
2016-10-07T10:27:04.309Z,99.99
2016-10-07T10:28:04.321Z,99.99
2016-10-07T10:29:04.276Z,99.99
2016-10-07T10:30:04.314Z,99.99
2016-10-07T10:31:04.271Z,99.99
2016-10-07T10:32:04.321Z,99.99
2016-10-07T10:33:04.283Z,99.99
2016-10-07T10:34:04.248Z,99.99
2016-10-07T10:35:04.339Z,99.99
2016-10-07T10:36:04.371Z,99.99
2016-10-07T10:37:04.305Z,99.99
2016-10-07T10:38:04.338Z,99.99
2016-10-07T10:39:04.359Z,99.99
2016-10-07T10:40:04.349Z,99.99
2016-10-07T10:41:04.484Z,99.99
2016-10-07T10:42:04.315Z,99.99
2016-10-07T10:43:04.326Z,99.99
2016-10-07T10:44:04.284Z,99.99
2016-10-07T10:45:04.357Z,99.99
2016-10-07T10:46:04.363Z,99.99
2016-10-07T10:47:04.380Z,99.99
2016-10-07T10:48:04.360Z,99.99
2016-10-07T10:49:04.373Z,99.99
2016-10-07T10:50:04.297Z,99.99
2016-10-07T10:51:04.375Z,99.99
2016-10-07T10:52:04.378Z,99.99
2016-10-07T10:53:04.299Z,99.99
2016-10-07T10:54:04.302Z,99.99
2016-10-07T10:55:04.421Z,99.99
2016-10-07T10:56:04.385Z,99.99
2016-10-07T10:57:04.557Z,99.99
2016-10-07T10:58:04.361Z,99.62
2016-10-07T10:59:04.397Z,99
2016-10-07T11:00:04.368Z,97.33
2016-10-07T11:01:04.465Z,97.85
2016-10-07T11:02:04.403Z,97.56
2016-10-07T11:03:04.447Z,98.24
2016-10-07T11:04:04.405Z,98.05
2016-10-07T11:05:04.451Z,98.24
2016-10-07T11:06:04.404Z,97.56
2016-10-07T11:07:04.431Z,97.8
2016-10-07T11:08:04.420Z,96.61
2016-10-07T11:09:04.388Z,97.38
2016-10-07T11:10:04.435Z,96.8
2016-10-07T11:11:04.512Z,97.28
2016-10-07T11:12:04.462Z,97.23
2016-10-07T11:13:04.625Z,98.09
2016-10-07T11:14:04.464Z,98.47
2016-10-07T11:15:04.417Z,98.71
2016-10-07T11:16:04.373Z,98.14
2016-10-07T11:17:04.452Z,97.33
2016-10-07T11:18:04.510Z,96.94
2016-10-07T11:19:04.414Z,96.99
2016-10-07T11:20:04.447Z,95.84
2016-10-07T11:21:04.427Z,94.6
2016-10-07T11:22:04.416Z,94.55
2016-10-07T11:23:04.392Z,93.69
2016-10-07T11:24:04.436Z,91.24
2016-10-07T11:25:04.400Z,88.93
2016-10-07T11:26:04.650Z,87.63
2016-10-07T11:27:04.460Z,85.47
2016-10-07T11:28:04.441Z,85.37
2016-10-07T11:29:04.620Z,85.28
2016-10-07T11:30:04.536Z,84.64
2016-10-07T11:31:04.416Z,83.4
2016-10-07T11:32:04.481Z,81.94
2016-10-07T11:33:04.498Z,81.07
2016-10-07T11:34:04.467Z,81.65
2016-10-07T11:35:04.514Z,81.42
2016-10-07T11:36:04.562Z,81.81
2016-10-07T11:37:04.545Z,82.67
2016-10-07T11:38:04.444Z,84.45
2016-10-07T11:39:04.532Z,85.18
2016-10-07T11:40:04.513Z,86.1
2016-10-07T11:41:04.574Z,87.68
2016-10-07T11:42:04.523Z,88.12
2016-10-07T11:43:04.520Z,88.6
2016-10-07T11:44:04.569Z,88.79
2016-10-07T11:45:04.958Z,88.51
2016-10-07T11:46:04.533Z,88.41
2016-10-07T11:47:04.577Z,88.65
2016-10-07T11:48:04.612Z,87.68
2016-10-07T11:49:04.515Z,87.49
2016-10-07T11:50:04.543Z,86.34
2016-10-07T11:51:04.575Z,85.33
2016-10-07T11:52:04.588Z,82.97
2016-10-07T11:53:04.564Z,82.24
2016-10-07T11:54:04.570Z,81.13
2016-10-07T11:55:04.633Z,80.46
2016-10-07T11:56:04.482Z,80.99
2016-10-07T11:57:04.532Z,81.42
2016-10-07T11:58:04.886Z,81.76
2016-10-07T11:59:04.806Z,82.68
2016-10-07T12:00:04.818Z,82.97
2016-10-07T12:01:05.051Z,83.26
2016-10-07T12:02:04.830Z,84.56
2016-10-07T12:03:04.587Z,85.42
2016-10-07T12:04:04.518Z,86.05
2016-10-07T12:05:04.561Z,85.52
2016-10-07T12:06:04.517Z,84.37
2016-10-07T12:07:04.605Z,84.56
2016-10-07T12:08:04.616Z,84.47
2016-10-07T12:09:04.564Z,84.91
2016-10-07T12:10:04.529Z,85.48
2016-10-07T12:11:04.565Z,85.62
2016-10-07T12:12:04.667Z,84.75
2016-10-07T12:13:04.542Z,84.56
2016-10-07T12:14:04.585Z,84.47
2016-10-07T12:15:04.619Z,84.08
2016-10-07T12:16:04.624Z,84.27
2016-10-07T12:17:04.764Z,84.18
2016-10-07T12:18:04.592Z,85.19
2016-10-07T12:19:04.625Z,85
2016-10-07T12:20:04.650Z,84.52
2016-10-07T12:21:04.597Z,84.66
2016-10-07T12:22:04.647Z,84.52
2016-10-07T12:23:04.729Z,83.89
2016-10-07T12:24:04.672Z,84.08
2016-10-07T12:25:04.656Z,84.56
2016-10-07T12:26:04.668Z,85.24
2016-10-07T12:27:04.657Z,84.37
2016-10-07T12:28:04.671Z,85.14
2016-10-07T12:29:04.681Z,85.28
2016-10-07T12:30:04.632Z,85.19
2016-10-07T12:31:04.628Z,85.77
2016-10-07T12:32:04.618Z,86.3
2016-10-07T12:33:04.719Z,86.01
2016-10-07T12:34:04.674Z,86.58
2016-10-07T12:35:04.647Z,86.01
2016-10-07T12:36:04.603Z,86.49
2016-10-07T12:37:04.705Z,86.64
2016-10-07T12:38:04.683Z,86.64
2016-10-07T12:39:04.754Z,87.5
2016-10-07T12:40:04.669Z,87.41
2016-10-07T12:41:04.713Z,87.41
2016-10-07T12:42:04.698Z,87.79
2016-10-07T12:43:04.672Z,87.41
2016-10-07T12:44:04.707Z,87.31
2016-10-07T12:45:04.712Z,87.21
2016-10-07T12:46:04.714Z,87.94
2016-10-07T12:47:04.683Z,88.17
2016-10-07T12:48:04.650Z,88.17
2016-10-07T12:49:04.854Z,87.88
2016-10-07T12:50:04.728Z,88.17
2016-10-07T12:51:04.731Z,87.88
2016-10-07T12:52:04.737Z,86.64
2016-10-07T12:53:04.739Z,85.72